Disclaimer

Please do not use the information listed here in-flight or in-navigation, as they are not provided to us by the airports but are provided by volunteers, so they might be outdated.

Search


Regions


Airport information page

No radio frequency information is available.

Airport informations:
Latitude: 48° 53' 03.00" N
Longitude: 024° 41' 10.00" E
Elevation: 919 feet - 280 meters
Operating hours: Remarks
Operating agency: Civil government, landing fees and diplomatic clearance may be required
Timezone: UTC+2(+3DT) - Last Sunday in March to last Sunday in October
Fuel: N/A

Runway information:
10/28 - 8226 x 144 feet< - >2507 x 44 meters

Recent METARs:
UKLI 202100Z 12008MPS 3100 -SHSN BKN005 BKN015CB M01/M01 Q1022 R10/090070 NOSIG
UKLI 202100Z 12008MPS 3100 -SHSN BKN005 BKN015CB M01/M01 Q1022 R10/090070 NOSIG
UKLI 202100Z 12008MPS 3100 -SHSN BKN005 BKN015CB M01/M01 Q1022 R10/090070 NOSIG

Airport on the map: